RUK627N EGPH-EGSS
Flight info
| Callsign | RUK627N |
|---|---|
| Flight time | 0h 56m |
| Altitude | 35000 |
| Route | GOSAM P600 FENIK L612 NAVSO DCT AKOMU DCT VAMEB UL612 LISTO |
| Aircraft | B738/M-SDE2E3FGHIRWXY/LB1 |
Departure
| Time | 2026-04-20 20:20 |
|---|---|
| Airport | Edinburgh Airport (EGPH) |
Arrival
| Time | 2026-04-20 21:16 |
|---|---|
| Airport | London Stansted Airport (EGSS) |
| Time | Latitude | Longitude | Altitude | Speed | Heading |
|---|---|---|---|---|---|
| 2026-04-20 20:04 | 55.94800 | -3.35681 | 144 ft | 0 kts | 209° |
| 2026-04-20 20:10 | 55.94802 | -3.35679 | 144 ft | 1 kts | 209° |
| 2026-04-20 20:11 | 55.94814 | -3.35667 | 144 ft | 2 kts | 209° |
| 2026-04-20 20:11 | 55.94825 | -3.35657 | 144 ft | 3 kts | 209° |
| 2026-04-20 20:11 | 55.94840 | -3.35634 | 144 ft | 3 kts | 232° |
| 2026-04-20 20:11 | 55.94849 | -3.35602 | 144 ft | 3 kts | 256° |
| 2026-04-20 20:12 | 55.94850 | -3.35565 | 144 ft | 3 kts | 278° |
| 2026-04-20 20:12 | 55.94849 | -3.35556 | 144 ft | 0 kts | 282° |
| 2026-04-20 20:13 | 55.94850 | -3.35557 | 144 ft | 1 kts | 282° |
| 2026-04-20 20:13 | 55.94858 | -3.35609 | 144 ft | 7 kts | 291° |
| 2026-04-20 20:13 | 55.94888 | -3.35709 | 144 ft | 12 kts | 298° |
| 2026-04-20 20:14 | 55.94939 | -3.35859 | 144 ft | 14 kts | 324° |
| 2026-04-20 20:14 | 55.95011 | -3.35839 | 144 ft | 11 kts | 10° |
| 2026-04-20 20:14 | 55.95072 | -3.35932 | 144 ft | 14 kts | 298° |
| 2026-04-20 20:14 | 55.95119 | -3.36121 | 144 ft | 19 kts | 288° |
| 2026-04-20 20:15 | 55.95119 | -3.36329 | 144 ft | 18 kts | 239° |
| 2026-04-20 20:15 | 55.95044 | -3.36551 | 144 ft | 23 kts | 239° |
| 2026-04-20 20:15 | 55.94952 | -3.36826 | 144 ft | 29 kts | 239° |
| 2026-04-20 20:15 | 55.94840 | -3.37158 | 144 ft | 33 kts | 239° |
| 2026-04-20 20:16 | 55.94718 | -3.37522 | 144 ft | 35 kts | 239° |
| 2026-04-20 20:16 | 55.94603 | -3.37863 | 144 ft | 25 kts | 239° |
| 2026-04-20 20:16 | 55.94513 | -3.38130 | 144 ft | 25 kts | 239° |
| 2026-04-20 20:16 | 55.94423 | -3.38396 | 144 ft | 25 kts | 239° |
| 2026-04-20 20:17 | 55.94345 | -3.38630 | 144 ft | 16 kts | 239° |
| 2026-04-20 20:17 | 55.94295 | -3.38779 | 144 ft | 14 kts | 239° |
| 2026-04-20 20:17 | 55.94306 | -3.38880 | 144 ft | 4 kts | 329° |
| 2026-04-20 20:17 | 55.94329 | -3.38905 | 144 ft | 4 kts | 329° |
| 2026-04-20 20:18 | 55.94367 | -3.38945 | 144 ft | 11 kts | 329° |
| 2026-04-20 20:18 | 55.94428 | -3.38953 | 144 ft | 8 kts | 56° |
| 2026-04-20 20:18 | 55.94442 | -3.38911 | 144 ft | 0 kts | 59° |
| 2026-04-20 20:19 | 55.94479 | -3.38803 | 144 ft | 33 kts | 59° |
| 2026-04-20 20:19 | 55.94702 | -3.38139 | 144 ft | 90 kts | 59° |
| 2026-04-20 20:19 | 55.95117 | -3.36908 | 148 ft | 141 kts | 59° |
| 2026-04-20 20:20 | 55.95638 | -3.35359 | 677 ft | 147 kts | 59° |
| 2026-04-20 20:20 | 55.96192 | -3.33810 | 1286 ft | 154 kts | 51° |
| 2026-04-20 20:20 | 55.97000 | -3.32502 | 1930 ft | 159 kts | 41° |
| 2026-04-20 20:20 | 55.97914 | -3.31244 | 2564 ft | 170 kts | 40° |
| 2026-04-20 20:21 | 55.98887 | -3.29965 | 3185 ft | 181 kts | 39° |
| 2026-04-20 20:21 | 56.00091 | -3.29125 | 3770 ft | 198 kts | 11° |
| 2026-04-20 20:21 | 56.01491 | -3.29609 | 4393 ft | 214 kts | 339° |
| 2026-04-20 20:21 | 56.02625 | -3.31385 | 5004 ft | 227 kts | 308° |
| 2026-04-20 20:22 | 56.03176 | -3.34086 | 5623 ft | 237 kts | 278° |
| 2026-04-20 20:22 | 56.03079 | -3.37074 | 6274 ft | 243 kts | 261° |
| 2026-04-20 20:22 | 56.02733 | -3.40053 | 6862 ft | 254 kts | 256° |
| 2026-04-20 20:22 | 56.02285 | -3.43243 | 7471 ft | 270 kts | 255° |
| 2026-04-20 20:23 | 56.01787 | -3.46601 | 8092 ft | 288 kts | 254° |
| 2026-04-20 20:23 | 56.01249 | -3.50147 | 8707 ft | 306 kts | 254° |
| 2026-04-20 20:23 | 56.00675 | -3.53883 | 9315 ft | 323 kts | 254° |
| 2026-04-20 20:23 | 56.00062 | -3.57867 | 9928 ft | 338 kts | 254° |
| 2026-04-20 20:24 | 55.99424 | -3.62027 | 10543 ft | 352 kts | 253° |
| 2026-04-20 20:24 | 55.98770 | -3.66317 | 11147 ft | 368 kts | 254° |
| 2026-04-20 20:24 | 55.98081 | -3.70865 | 11759 ft | 387 kts | 253° |
| 2026-04-20 20:24 | 55.97377 | -3.75554 | 12362 ft | 403 kts | 253° |
| 2026-04-20 20:25 | 55.96645 | -3.80463 | 13192 ft | 410 kts | 253° |
| 2026-04-20 20:25 | 55.95890 | -3.85434 | 14051 ft | 414 kts | 253° |
| 2026-04-20 20:25 | 55.94856 | -3.90206 | 14902 ft | 415 kts | 241° |
| 2026-04-20 20:25 | 55.93334 | -3.94519 | 15764 ft | 414 kts | 232° |
| 2026-04-20 20:26 | 55.91525 | -3.98552 | 16633 ft | 413 kts | 227° |
| 2026-04-20 20:26 | 55.89604 | -4.02297 | 17485 ft | 411 kts | 224° |
| 2026-04-20 20:26 | 55.87600 | -4.05901 | 18347 ft | 409 kts | 222° |
| 2026-04-20 20:26 | 55.85544 | -4.09404 | 19208 ft | 406 kts | 221° |
| 2026-04-20 20:27 | 55.83459 | -4.12839 | 20066 ft | 407 kts | 220° |
| 2026-04-20 20:27 | 55.81333 | -4.16104 | 20924 ft | 410 kts | 218° |
| 2026-04-20 20:27 | 55.79087 | -4.19306 | 21796 ft | 411 kts | 216° |
| 2026-04-20 20:27 | 55.76665 | -4.21890 | 22655 ft | 409 kts | 202° |
| 2026-04-20 20:28 | 55.73936 | -4.23217 | 23522 ft | 405 kts | 186° |
| 2026-04-20 20:28 | 55.71156 | -4.23123 | 24384 ft | 401 kts | 172° |
| 2026-04-20 20:28 | 55.68398 | -4.22115 | 25123 ft | 403 kts | 165° |
| 2026-04-20 20:28 | 55.65697 | -4.20615 | 25491 ft | 413 kts | 160° |
| 2026-04-20 20:29 | 55.63019 | -4.18795 | 26018 ft | 418 kts | 158° |
| 2026-04-20 20:29 | 55.60331 | -4.16777 | 26610 ft | 421 kts | 156° |
| 2026-04-20 20:29 | 55.57647 | -4.14623 | 27217 ft | 422 kts | 155° |
| 2026-04-20 20:29 | 55.54991 | -4.12413 | 27817 ft | 423 kts | 154° |
| 2026-04-20 20:30 | 55.52365 | -4.10095 | 28421 ft | 424 kts | 153° |
| 2026-04-20 20:30 | 55.49727 | -4.07640 | 29033 ft | 424 kts | 152° |
| 2026-04-20 20:30 | 55.47125 | -4.05158 | 29351 ft | 432 kts | 152° |
| 2026-04-20 20:30 | 55.44432 | -4.02590 | 29421 ft | 444 kts | 152° |
| 2026-04-20 20:31 | 55.41697 | -3.99985 | 29424 ft | 457 kts | 152° |
| 2026-04-20 20:31 | 55.38855 | -3.97280 | 29420 ft | 469 kts | 152° |
| 2026-04-20 20:31 | 55.33033 | -3.91716 | 29417 ft | 487 kts | 152° |
| 2026-04-20 20:32 | 55.27114 | -3.86092 | 29414 ft | 478 kts | 152° |
| 2026-04-20 20:32 | 55.21259 | -3.80783 | 29414 ft | 475 kts | 153° |
| 2026-04-20 20:33 | 55.15350 | -3.75571 | 29413 ft | 474 kts | 154° |
| 2026-04-20 20:33 | 55.09418 | -3.70487 | 29412 ft | 474 kts | 155° |
| 2026-04-20 20:34 | 55.03497 | -3.65489 | 29410 ft | 474 kts | 155° |
| 2026-04-20 20:34 | 54.97544 | -3.60480 | 29402 ft | 475 kts | 155° |
| 2026-04-20 20:35 | 54.91592 | -3.55473 | 29396 ft | 476 kts | 155° |
| 2026-04-20 20:35 | 54.85642 | -3.50466 | 29390 ft | 476 kts | 155° |
| 2026-04-20 20:36 | 54.79657 | -3.45428 | 29388 ft | 477 kts | 155° |
| 2026-04-20 20:36 | 54.73687 | -3.40399 | 29387 ft | 478 kts | 155° |
| 2026-04-20 20:37 | 54.67741 | -3.35388 | 29834 ft | 473 kts | 155° |
| 2026-04-20 20:37 | 54.64808 | -3.32924 | 30314 ft | 472 kts | 156° |
| 2026-04-20 20:37 | 54.61835 | -3.30451 | 30814 ft | 472 kts | 155° |
| 2026-04-20 20:38 | 54.58889 | -3.27987 | 31315 ft | 473 kts | 155° |
| 2026-04-20 20:38 | 54.55920 | -3.25500 | 31886 ft | 472 kts | 155° |
| 2026-04-20 20:38 | 54.52981 | -3.23044 | 32476 ft | 472 kts | 155° |
| 2026-04-20 20:38 | 54.50013 | -3.20574 | 33078 ft | 472 kts | 155° |
| 2026-04-20 20:39 | 54.47066 | -3.18136 | 33675 ft | 472 kts | 155° |
| 2026-04-20 20:39 | 54.44085 | -3.15660 | 34280 ft | 471 kts | 155° |
| 2026-04-20 20:39 | 54.41159 | -3.13208 | 34875 ft | 471 kts | 154° |
| 2026-04-20 20:39 | 54.38198 | -3.10721 | 35282 ft | 475 kts | 154° |
| 2026-04-20 20:40 | 54.32197 | -3.05691 | 35733 ft | 484 kts | 154° |
| 2026-04-20 20:40 | 54.29173 | -3.03167 | 36214 ft | 481 kts | 154° |
| 2026-04-20 20:40 | 54.26197 | -3.00663 | 36707 ft | 478 kts | 154° |
| 2026-04-20 20:41 | 54.23205 | -2.98143 | 37162 ft | 478 kts | 154° |
| 2026-04-20 20:41 | 54.20172 | -2.95664 | 37296 ft | 483 kts | 155° |
| 2026-04-20 20:41 | 54.14019 | -2.90887 | 37349 ft | 489 kts | 156° |
| 2026-04-20 20:42 | 54.07827 | -2.86230 | 37339 ft | 486 kts | 157° |
| 2026-04-20 20:42 | 54.01618 | -2.81693 | 37332 ft | 483 kts | 157° |
| 2026-04-20 20:43 | 53.95449 | -2.77272 | 37328 ft | 482 kts | 158° |
| 2026-04-20 20:43 | 53.89267 | -2.72826 | 37326 ft | 482 kts | 158° |
| 2026-04-20 20:44 | 53.83091 | -2.68385 | 37326 ft | 482 kts | 158° |
| 2026-04-20 20:44 | 53.76935 | -2.63970 | 37327 ft | 482 kts | 158° |
| 2026-04-20 20:45 | 53.70773 | -2.59566 | 37329 ft | 482 kts | 158° |
| 2026-04-20 20:45 | 53.64577 | -2.55150 | 37343 ft | 482 kts | 158° |
| 2026-04-20 20:46 | 53.58422 | -2.50773 | 37354 ft | 482 kts | 158° |
| 2026-04-20 20:46 | 53.52224 | -2.46375 | 37363 ft | 482 kts | 158° |
| 2026-04-20 20:47 | 53.46044 | -2.41996 | 37370 ft | 482 kts | 158° |
| 2026-04-20 20:47 | 53.39879 | -2.37634 | 37374 ft | 482 kts | 158° |
| 2026-04-20 20:48 | 53.33708 | -2.33305 | 37376 ft | 483 kts | 159° |
| 2026-04-20 20:48 | 53.27714 | -2.28258 | 37379 ft | 484 kts | 147° |
| 2026-04-20 20:49 | 53.22362 | -2.21452 | 37379 ft | 485 kts | 141° |
| 2026-04-20 20:49 | 53.17246 | -2.14101 | 37368 ft | 485 kts | 139° |
| 2026-04-20 20:50 | 53.12221 | -2.06629 | 37359 ft | 486 kts | 138° |
| 2026-04-20 20:50 | 53.07200 | -1.99089 | 37352 ft | 486 kts | 138° |
| 2026-04-20 20:51 | 53.02174 | -1.91525 | 37347 ft | 487 kts | 138° |
| 2026-04-20 20:51 | 52.97126 | -1.83928 | 37018 ft | 492 kts | 138° |
| 2026-04-20 20:52 | 52.94612 | -1.80140 | 36545 ft | 495 kts | 138° |
| 2026-04-20 20:52 | 52.92050 | -1.76270 | 36045 ft | 495 kts | 139° |
| 2026-04-20 20:52 | 52.89537 | -1.72463 | 35552 ft | 495 kts | 139° |
| 2026-04-20 20:52 | 52.86985 | -1.68624 | 35051 ft | 495 kts | 139° |
| 2026-04-20 20:53 | 52.84425 | -1.64795 | 34550 ft | 495 kts | 139° |
| 2026-04-20 20:53 | 52.81853 | -1.60949 | 34048 ft | 496 kts | 139° |
| 2026-04-20 20:53 | 52.79318 | -1.57150 | 33553 ft | 498 kts | 140° |
| 2026-04-20 20:53 | 52.76743 | -1.53278 | 33051 ft | 499 kts | 140° |
| 2026-04-20 20:54 | 52.74150 | -1.49400 | 32548 ft | 501 kts | 140° |
| 2026-04-20 20:54 | 52.71593 | -1.45568 | 32054 ft | 503 kts | 140° |
| 2026-04-20 20:54 | 52.68999 | -1.41644 | 31552 ft | 505 kts | 140° |
| 2026-04-20 20:54 | 52.66408 | -1.37697 | 31051 ft | 507 kts | 140° |
| 2026-04-20 20:55 | 52.63840 | -1.33761 | 30555 ft | 509 kts | 140° |
| 2026-04-20 20:55 | 52.61230 | -1.29757 | 30052 ft | 511 kts | 140° |
| 2026-04-20 20:55 | 52.58680 | -1.25867 | 29553 ft | 490 kts | 140° |
| 2026-04-20 20:55 | 52.56232 | -1.22134 | 29046 ft | 466 kts | 140° |
| 2026-04-20 20:56 | 52.53928 | -1.18624 | 28546 ft | 446 kts | 140° |
| 2026-04-20 20:56 | 52.51692 | -1.15218 | 28040 ft | 429 kts | 140° |
| 2026-04-20 20:56 | 52.49534 | -1.11933 | 27534 ft | 415 kts | 140° |
| 2026-04-20 20:56 | 52.47434 | -1.08745 | 27027 ft | 403 kts | 140° |
| 2026-04-20 20:57 | 52.45413 | -1.05681 | 26525 ft | 393 kts | 140° |
| 2026-04-20 20:57 | 52.43424 | -1.02676 | 26021 ft | 384 kts | 140° |
| 2026-04-20 20:57 | 52.41494 | -0.99767 | 25522 ft | 376 kts | 140° |
| 2026-04-20 20:57 | 52.39598 | -0.96919 | 25023 ft | 369 kts | 140° |
| 2026-04-20 20:58 | 52.37703 | -0.94086 | 24519 ft | 364 kts | 140° |
| 2026-04-20 20:58 | 52.35840 | -0.91313 | 24018 ft | 360 kts | 140° |
| 2026-04-20 20:58 | 52.34004 | -0.88593 | 23519 ft | 356 kts | 140° |
| 2026-04-20 20:58 | 52.32169 | -0.85888 | 23017 ft | 352 kts | 140° |
| 2026-04-20 20:59 | 52.30370 | -0.83253 | 22520 ft | 348 kts | 140° |
| 2026-04-20 20:59 | 52.28560 | -0.80622 | 22016 ft | 344 kts | 140° |
| 2026-04-20 20:59 | 52.27373 | -0.78906 | 21684 ft | 341 kts | 140° |
| 2026-04-20 20:59 | 52.25615 | -0.76381 | 21187 ft | 337 kts | 140° |
| 2026-04-20 21:00 | 52.23279 | -0.73051 | 20519 ft | 331 kts | 140° |
| 2026-04-20 21:00 | 52.22125 | -0.71417 | 20186 ft | 329 kts | 140° |
| 2026-04-20 21:00 | 52.20406 | -0.68964 | 19683 ft | 324 kts | 140° |
| 2026-04-20 21:00 | 52.18713 | -0.66536 | 19180 ft | 320 kts | 140° |
| 2026-04-20 21:01 | 52.17063 | -0.64177 | 18684 ft | 316 kts | 140° |
| 2026-04-20 21:01 | 52.15408 | -0.61824 | 18181 ft | 312 kts | 140° |
| 2026-04-20 21:01 | 52.13794 | -0.59544 | 17684 ft | 308 kts | 140° |
| 2026-04-20 21:01 | 52.12174 | -0.57270 | 17180 ft | 304 kts | 140° |
| 2026-04-20 21:02 | 52.10590 | -0.55059 | 16682 ft | 300 kts | 140° |
| 2026-04-20 21:02 | 52.09026 | -0.52885 | 16185 ft | 296 kts | 140° |
| 2026-04-20 21:02 | 52.07468 | -0.50699 | 15682 ft | 293 kts | 139° |
| 2026-04-20 21:02 | 52.05930 | -0.48524 | 15179 ft | 290 kts | 139° |
| 2026-04-20 21:03 | 52.04429 | -0.46403 | 14684 ft | 287 kts | 139° |
| 2026-04-20 21:03 | 52.02924 | -0.44283 | 14182 ft | 285 kts | 139° |
| 2026-04-20 21:03 | 52.01604 | -0.41919 | 13668 ft | 281 kts | 120° |
| 2026-04-20 21:03 | 52.00917 | -0.38993 | 13184 ft | 275 kts | 102° |
| 2026-04-20 21:04 | 52.00600 | -0.35986 | 12700 ft | 272 kts | 95° |
| 2026-04-20 21:04 | 52.00409 | -0.32937 | 12200 ft | 270 kts | 93° |
| 2026-04-20 21:04 | 52.00265 | -0.29892 | 11696 ft | 267 kts | 92° |
| 2026-04-20 21:04 | 52.00149 | -0.26919 | 11201 ft | 265 kts | 92° |
| 2026-04-20 21:05 | 52.00035 | -0.23928 | 10699 ft | 263 kts | 92° |
| 2026-04-20 21:05 | 51.99922 | -0.20993 | 10201 ft | 261 kts | 92° |
| 2026-04-20 21:05 | 51.99809 | -0.18054 | 9700 ft | 259 kts | 92° |
| 2026-04-20 21:05 | 51.99704 | -0.15176 | 9204 ft | 257 kts | 92° |
| 2026-04-20 21:06 | 51.99604 | -0.12285 | 8702 ft | 254 kts | 91° |
| 2026-04-20 21:06 | 51.99496 | -0.09457 | 8203 ft | 252 kts | 94° |
| 2026-04-20 21:06 | 51.98945 | -0.06786 | 7804 ft | 249 kts | 120° |
| 2026-04-20 21:06 | 51.97714 | -0.04883 | 7551 ft | 246 kts | 147° |
| 2026-04-20 21:07 | 51.96079 | -0.04043 | 7322 ft | 247 kts | 168° |
| 2026-04-20 21:07 | 51.94376 | -0.03815 | 7086 ft | 249 kts | 175° |
| 2026-04-20 21:07 | 51.92642 | -0.03775 | 6838 ft | 248 kts | 177° |
| 2026-04-20 21:07 | 51.90920 | -0.03795 | 6586 ft | 246 kts | 178° |
| 2026-04-20 21:08 | 51.89209 | -0.03834 | 6336 ft | 245 kts | 178° |
| 2026-04-20 21:08 | 51.87527 | -0.03878 | 6088 ft | 243 kts | 178° |
| 2026-04-20 21:08 | 51.85829 | -0.03926 | 5838 ft | 242 kts | 178° |
| 2026-04-20 21:08 | 51.84166 | -0.03976 | 5588 ft | 240 kts | 178° |
| 2026-04-20 21:09 | 51.82489 | -0.04034 | 5335 ft | 239 kts | 178° |
| 2026-04-20 21:09 | 51.80836 | -0.04098 | 5126 ft | 236 kts | 178° |
| 2026-04-20 21:09 | 51.79209 | -0.04166 | 4945 ft | 227 kts | 178° |
| 2026-04-20 21:09 | 51.77697 | -0.04244 | 4811 ft | 212 kts | 178° |
| 2026-04-20 21:10 | 51.76252 | -0.04295 | 4613 ft | 200 kts | 173° |
| 2026-04-20 21:10 | 51.75028 | -0.03584 | 4346 ft | 183 kts | 140° |
| 2026-04-20 21:10 | 51.74363 | -0.01979 | 4096 ft | 167 kts | 104° |
| 2026-04-20 21:10 | 51.74415 | -0.00153 | 3880 ft | 161 kts | 78° |
| 2026-04-20 21:11 | 51.74763 | 0.01536 | 3641 ft | 160 kts | 66° |
| 2026-04-20 21:11 | 51.75303 | 0.03090 | 3391 ft | 156 kts | 55° |
| 2026-04-20 21:11 | 51.75966 | 0.04456 | 3180 ft | 150 kts | 49° |
| 2026-04-20 21:11 | 51.76662 | 0.05653 | 3008 ft | 146 kts | 45° |
| 2026-04-20 21:12 | 51.77382 | 0.06790 | 2831 ft | 146 kts | 43° |
| 2026-04-20 21:12 | 51.78122 | 0.07916 | 2653 ft | 146 kts | 43° |
| 2026-04-20 21:12 | 51.78871 | 0.09043 | 2478 ft | 146 kts | 43° |
| 2026-04-20 21:12 | 51.79611 | 0.10152 | 2300 ft | 147 kts | 43° |
| 2026-04-20 21:13 | 51.80361 | 0.11274 | 2139 ft | 142 kts | 43° |
| 2026-04-20 21:13 | 51.81085 | 0.12359 | 1980 ft | 142 kts | 43° |
| 2026-04-20 21:13 | 51.81810 | 0.13446 | 1837 ft | 144 kts | 42° |
| 2026-04-20 21:13 | 51.82554 | 0.14560 | 1681 ft | 146 kts | 42° |
| 2026-04-20 21:14 | 51.83309 | 0.15693 | 1530 ft | 147 kts | 42° |
| 2026-04-20 21:14 | 51.84024 | 0.16765 | 1390 ft | 137 kts | 42° |
| 2026-04-20 21:14 | 51.84720 | 0.17810 | 1192 ft | 136 kts | 42° |
| 2026-04-20 21:14 | 51.85409 | 0.18845 | 1009 ft | 134 kts | 42° |
| 2026-04-20 21:15 | 51.86090 | 0.19868 | 831 ft | 133 kts | 43° |
| 2026-04-20 21:15 | 51.86769 | 0.20889 | 651 ft | 133 kts | 43° |
| 2026-04-20 21:15 | 51.87441 | 0.21900 | 460 ft | 133 kts | 43° |
| 2026-04-20 21:15 | 51.88100 | 0.22891 | 357 ft | 125 kts | 43° |
| 2026-04-20 21:16 | 51.88593 | 0.23636 | 357 ft | 64 kts | 43° |
| 2026-04-20 21:16 | 51.88864 | 0.24043 | 357 ft | 45 kts | 43° |
| 2026-04-20 21:16 | 51.89030 | 0.24332 | 357 ft | 28 kts | 61° |
| 2026-04-20 21:16 | 51.89093 | 0.24566 | 357 ft | 18 kts | 68° |
| 2026-04-20 21:17 | 51.89129 | 0.24711 | 357 ft | 10 kts | 68° |
| 2026-04-20 21:17 | 51.89145 | 0.24774 | 357 ft | 3 kts | 68° |
| 2026-04-20 21:17 | 51.89153 | 0.24805 | 357 ft | 4 kts | 74° |
| 2026-04-20 21:17 | 51.89143 | 0.24861 | 357 ft | 7 kts | 128° |
| 2026-04-20 21:18 | 51.89142 | 0.24942 | 357 ft | 9 kts | 49° |
| 2026-04-20 21:18 | 51.89195 | 0.25028 | 357 ft | 12 kts | 53° |
| 2026-04-20 21:18 | 51.89244 | 0.25159 | 357 ft | 16 kts | 58° |
| 2026-04-20 21:18 | 51.89317 | 0.25279 | 357 ft | 11 kts | 43° |
| 2026-04-20 21:19 | 51.89383 | 0.25378 | 357 ft | 15 kts | 43° |
| 2026-04-20 21:19 | 51.89417 | 0.25459 | 357 ft | 3 kts | 135° |
| 2026-04-20 21:19 | 51.89391 | 0.25497 | 357 ft | 7 kts | 139° |
| 2026-04-20 21:20 | 51.89282 | 0.25680 | 357 ft | 15 kts | 133° |
| 2026-04-20 21:20 | 51.89211 | 0.25803 | 357 ft | 11 kts | 135° |
| 2026-04-20 21:20 | 51.89165 | 0.25789 | 357 ft | 6 kts | 222° |
| 2026-04-20 21:20 | 51.89145 | 0.25759 | 357 ft | 4 kts | 223° |
| 2026-04-20 21:21 | 51.89137 | 0.25748 | 357 ft | 0 kts | 223° |